sensor_id;sensor_type;location;lat;lon;timestamp;pressure;altitude;pressure_sealevel;temperature
79498;BMP180;75160;53.138;18.020;2024-02-26T00:00:23;99910.00;;;
79498;BMP180;75160;53.138;18.020;2024-02-26T00:01:45;99914.60;;;
79498;BMP180;75160;53.138;18.020;2024-02-26T00:02:47;99912.80;;;
79498;BMP180;75160;53.138;18.020;2024-02-26T00:03:49;99911.20;;;
79498;BMP180;75160;53.138;18.020;2024-02-26T00:04:51;99911.40;;;
79498;BMP180;75160;53.138;18.020;2024-02-26T00:05:53;99914.40;;;
79498;BMP180;75160;53.138;18.020;2024-02-26T00:06:56;99915.60;;;
79498;BMP180;75160;53.138;18.020;2024-02-26T00:07:59;99915.80;;;
79498;BMP180;75160;53.138;18.020;2024-02-26T00:09:01;99914.80;;;
79498;BMP180;75160;53.138;18.020;2024-02-26T00:10:05;99918.80;;;
79498;BMP180;75160;53.138;18.020;2024-02-26T00:11:07;99917.80;;;
79498;BMP180;75160;53.138;18.020;2024-02-26T00:12:08;99921.40;;;
79498;BMP180;75160;53.138;18.020;2024-02-26T00:13:10;99925.80;;;
79498;BMP180;75160;53.138;18.020;2024-02-26T00:14:12;99921.60;;;
79498;BMP180;75160;53.138;18.020;2024-02-26T00:15:14;99916.00;;;
79498;BMP180;75160;53.138;18.020;2024-02-26T00:16:15;99923.40;;;
79498;BMP180;75160;53.138;18.020;2024-02-26T00:17:17;99919.60;;;
79498;BMP180;75160;53.138;18.020;2024-02-26T00:18:19;99920.00;;;
79498;BMP180;75160;53.138;18.020;2024-02-26T00:19:21;99918.20;;;
79498;BMP180;75160;53.138;18.020;2024-02-26T00:20:22;99918.00;;;
79498;BMP180;75160;53.138;18.020;2024-02-26T00:21:24;99921.20;;;
79498;BMP180;75160;53.138;18.020;2024-02-26T00:22:26;99918.40;;;
79498;BMP180;75160;53.138;18.020;2024-02-26T00:23:28;99924.60;;;
79498;BMP180;75160;53.138;18.020;2024-02-26T00:24:30;99917.20;;;
79498;BMP180;75160;53.138;18.020;2024-02-26T00:25:32;99921.40;;;
79498;BMP180;75160;53.138;18.020;2024-02-26T00:26:34;99915.40;;;
79498;BMP180;75160;53.138;18.020;2024-02-26T00:27:36;99918.00;;;
79498;BMP180;75160;53.138;18.020;2024-02-26T00:28:37;99914.20;;;
79498;BMP180;75160;53.138;18.020;2024-02-26T00:29:39;99915.20;;;
79498;BMP180;75160;53.138;18.020;2024-02-26T00:30:41;99913.60;;;
79498;BMP180;75160;53.138;18.020;2024-02-26T00:31:43;99912.00;;;
79498;BMP180;75160;53.138;18.020;2024-02-26T00:32:45;99906.60;;;
79498;BMP180;75160;53.138;18.020;2024-02-26T00:33:47;99910.80;;;
79498;BMP180;75160;53.138;18.020;2024-02-26T00:34:48;99905.20;;;
79498;BMP180;75160;53.138;18.020;2024-02-26T00:35:50;99905.60;;;
79498;BMP180;75160;53.138;18.020;2024-02-26T00:36:52;99900.80;;;
79498;BMP180;75160;53.138;18.020;2024-02-26T00:37:53;99905.20;;;
79498;BMP180;75160;53.138;18.020;2024-02-26T00:38:55;99900.80;;;
79498;BMP180;75160;53.138;18.020;2024-02-26T00:39:57;99904.20;;;
79498;BMP180;75160;53.138;18.020;2024-02-26T00:40:59;99907.80;;;
79498;BMP180;75160;53.138;18.020;2024-02-26T00:42:00;99905.60;;;
79498;BMP180;75160;53.138;18.020;2024-02-26T00:43:03;99900.80;;;
79498;BMP180;75160;53.138;18.020;2024-02-26T00:44:05;99901.00;;;
79498;BMP180;75160;53.138;18.020;2024-02-26T00:45:07;99902.80;;;
79498;BMP180;75160;53.138;18.020;2024-02-26T00:46:09;99904.00;;;
79498;BMP180;75160;53.138;18.020;2024-02-26T00:47:10;99908.40;;;
79498;BMP180;75160;53.138;18.020;2024-02-26T00:48:12;99904.60;;;
79498;BMP180;75160;53.138;18.020;2024-02-26T00:49:15;99906.60;;;
79498;BMP180;75160;53.138;18.020;2024-02-26T00:50:17;99907.60;;;
79498;BMP180;75160;53.138;18.020;2024-02-26T00:51:19;99901.40;;;
79498;BMP180;75160;53.138;18.020;2024-02-26T00:52:20;99903.40;;;
79498;BMP180;75160;53.138;18.020;2024-02-26T00:53:22;99904.40;;;
79498;BMP180;75160;53.138;18.020;2024-02-26T00:54:26;99901.40;;;
79498;BMP180;75160;53.138;18.020;2024-02-26T00:55:28;99897.60;;;
79498;BMP180;75160;53.138;18.020;2024-02-26T00:56:30;99896.00;;;
79498;BMP180;75160;53.138;18.020;2024-02-26T00:57:31;99896.40;;;
79498;BMP180;75160;53.138;18.020;2024-02-26T00:58:33;99897.80;;;
79498;BMP180;75160;53.138;18.020;2024-02-26T00:59:35;99892.60;;;
79498;BMP180;75160;53.138;18.020;2024-02-26T01:00:37;99896.60;;;
79498;BMP180;75160;53.138;18.020;2024-02-26T01:01:39;99893.60;;;
79498;BMP180;75160;53.138;18.020;2024-02-26T01:02:41;99895.00;;;
79498;BMP180;75160;53.138;18.020;2024-02-26T01:03:43;99896.80;;;
79498;BMP180;75160;53.138;18.020;2024-02-26T01:04:45;99895.40;;;
79498;BMP180;75160;53.138;18.020;2024-02-26T01:05:47;99891.00;;;
79498;BMP180;75160;53.138;18.020;2024-02-26T01:06:48;99892.20;;;
79498;BMP180;75160;53.138;18.020;2024-02-26T01:07:51;99890.20;;;
79498;BMP180;75160;53.138;18.020;2024-02-26T01:08:52;99890.60;;;
79498;BMP180;75160;53.138;18.020;2024-02-26T01:09:54;99890.60;;;
79498;BMP180;75160;53.138;18.020;2024-02-26T01:10:56;99893.00;;;
79498;BMP180;75160;53.138;18.020;2024-02-26T01:11:58;99893.00;;;
79498;BMP180;75160;53.138;18.020;2024-02-26T01:13:01;99895.40;;;
79498;BMP180;75160;53.138;18.020;2024-02-26T01:14:03;99898.20;;;
79498;BMP180;75160;53.138;18.020;2024-02-26T01:15:05;99894.20;;;
79498;BMP180;75160;53.138;18.020;2024-02-26T01:16:07;99892.80;;;
79498;BMP180;75160;53.138;18.020;2024-02-26T01:17:09;99900.00;;;
79498;BMP180;75160;53.138;18.020;2024-02-26T01:18:12;99894.00;;;
79498;BMP180;75160;53.138;18.020;2024-02-26T01:19:13;99898.40;;;
79498;BMP180;75160;53.138;18.020;2024-02-26T01:20:15;99899.40;;;
79498;BMP180;75160;53.138;18.020;2024-02-26T01:21:17;99899.20;;;
79498;BMP180;75160;53.138;18.020;2024-02-26T01:22:19;99905.00;;;
79498;BMP180;75160;53.138;18.020;2024-02-26T01:23:21;99908.40;;;
79498;BMP180;75160;53.138;18.020;2024-02-26T01:24:23;99909.20;;;
79498;BMP180;75160;53.138;18.020;2024-02-26T01:25:25;99906.40;;;
79498;BMP180;75160;53.138;18.020;2024-02-26T01:26:26;99907.00;;;
79498;BMP180;75160;53.138;18.020;2024-02-26T01:27:28;99901.80;;;
79498;BMP180;75160;53.138;18.020;2024-02-26T01:28:30;99905.00;;;
79498;BMP180;75160;53.138;18.020;2024-02-26T01:29:32;99906.80;;;
79498;BMP180;75160;53.138;18.020;2024-02-26T01:30:34;99908.00;;;
79498;BMP180;75160;53.138;18.020;2024-02-26T01:31:38;99909.20;;;
79498;BMP180;75160;53.138;18.020;2024-02-26T01:32:40;99904.80;;;
79498;BMP180;75160;53.138;18.020;2024-02-26T01:33:42;99910.80;;;
79498;BMP180;75160;53.138;18.020;2024-02-26T01:34:43;99914.20;;;
79498;BMP180;75160;53.138;18.020;2024-02-26T01:35:45;99912.20;;;
79498;BMP180;75160;53.138;18.020;2024-02-26T01:36:48;99909.80;;;
79498;BMP180;75160;53.138;18.020;2024-02-26T01:37:50;99913.00;;;
79498;BMP180;75160;53.138;18.020;2024-02-26T01:38:52;99916.20;;;
79498;BMP180;75160;53.138;18.020;2024-02-26T01:39:54;99913.00;;;
79498;BMP180;75160;53.138;18.020;2024-02-26T01:40:56;99909.00;;;
79498;BMP180;75160;53.138;18.020;2024-02-26T01:41:58;99915.00;;;
79498;BMP180;75160;53.138;18.020;2024-02-26T01:42:59;99917.40;;;
79498;BMP180;75160;53.138;18.020;2024-02-26T01:44:02;99917.60;;;
79498;BMP180;75160;53.138;18.020;2024-02-26T01:45:05;99917.40;;;
79498;BMP180;75160;53.138;18.020;2024-02-26T01:46:14;99918.80;;;
79498;BMP180;75160;53.138;18.020;2024-02-26T01:47:16;99921.60;;;
79498;BMP180;75160;53.138;18.020;2024-02-26T01:48:18;99921.40;;;
79498;BMP180;75160;53.138;18.020;2024-02-26T01:49:20;99919.00;;;
79498;BMP180;75160;53.138;18.020;2024-02-26T01:50:22;99925.60;;;
79498;BMP180;75160;53.138;18.020;2024-02-26T01:51:25;99923.80;;;
79498;BMP180;75160;53.138;18.020;2024-02-26T01:52:27;99921.20;;;
79498;BMP180;75160;53.138;18.020;2024-02-26T01:53:29;99913.80;;;
79498;BMP180;75160;53.138;18.020;2024-02-26T01:54:35;99916.40;;;
79498;BMP180;75160;53.138;18.020;2024-02-26T01:55:38;99915.80;;;
79498;BMP180;75160;53.138;18.020;2024-02-26T01:56:41;99918.00;;;
79498;BMP180;75160;53.138;18.020;2024-02-26T01:57:46;99915.00;;;
79498;BMP180;75160;53.138;18.020;2024-02-26T01:58:49;99914.20;;;
79498;BMP180;75160;53.138;18.020;2024-02-26T01:59:51;99917.60;;;
79498;BMP180;75160;53.138;18.020;2024-02-26T02:00:53;99918.60;;;
79498;BMP180;75160;53.138;18.020;2024-02-26T02:01:59;99918.60;;;
79498;BMP180;75160;53.138;18.020;2024-02-26T02:03:04;99918.80;;;
79498;BMP180;75160;53.138;18.020;2024-02-26T02:04:08;99919.00;;;
79498;BMP180;75160;53.138;18.020;2024-02-26T02:05:12;99919.00;;;
79498;BMP180;75160;53.138;18.020;2024-02-26T02:06:15;99913.60;;;
79498;BMP180;75160;53.138;18.020;2024-02-26T02:07:18;99920.00;;;
79498;BMP180;75160;53.138;18.020;2024-02-26T02:08:22;99917.80;;;
79498;BMP180;75160;53.138;18.020;2024-02-26T02:09:26;99912.60;;;
79498;BMP180;75160;53.138;18.020;2024-02-26T02:10:29;99910.60;;;
79498;BMP180;75160;53.138;18.020;2024-02-26T02:11:30;99911.00;;;
79498;BMP180;75160;53.138;18.020;2024-02-26T02:12:33;99912.00;;;
79498;BMP180;75160;53.138;18.020;2024-02-26T02:13:35;99909.80;;;
79498;BMP180;75160;53.138;18.020;2024-02-26T02:14:38;99908.80;;;
79498;BMP180;75160;53.138;18.020;2024-02-26T02:15:39;99913.60;;;
79498;BMP180;75160;53.138;18.020;2024-02-26T02:16:41;99909.60;;;
79498;BMP180;75160;53.138;18.020;2024-02-26T02:17:43;99908.60;;;
79498;BMP180;75160;53.138;18.020;2024-02-26T02:18:45;99909.20;;;
79498;BMP180;75160;53.138;18.020;2024-02-26T02:19:47;99913.20;;;
79498;BMP180;75160;53.138;18.020;2024-02-26T02:20:49;99909.80;;;
79498;BMP180;75160;53.138;18.020;2024-02-26T02:21:51;99915.80;;;
79498;BMP180;75160;53.138;18.020;2024-02-26T02:22:52;99919.60;;;
79498;BMP180;75160;53.138;18.020;2024-02-26T02:23:54;99920.40;;;
79498;BMP180;75160;53.138;18.020;2024-02-26T02:24:56;99915.40;;;
79498;BMP180;75160;53.138;18.020;2024-02-26T02:25:58;99919.60;;;
79498;BMP180;75160;53.138;18.020;2024-02-26T02:27:01;99918.20;;;
79498;BMP180;75160;53.138;18.020;2024-02-26T02:28:04;99919.60;;;
79498;BMP180;75160;53.138;18.020;2024-02-26T02:29:07;99920.80;;;
79498;BMP180;75160;53.138;18.020;2024-02-26T02:30:11;99915.20;;;
79498;BMP180;75160;53.138;18.020;2024-02-26T02:31:14;99919.00;;;
79498;BMP180;75160;53.138;18.020;2024-02-26T02:32:17;99919.40;;;
79498;BMP180;75160;53.138;18.020;2024-02-26T02:33:20;99916.80;;;
79498;BMP180;75160;53.138;18.020;2024-02-26T02:34:22;99916.40;;;
79498;BMP180;75160;53.138;18.020;2024-02-26T02:35:25;99915.40;;;
79498;BMP180;75160;53.138;18.020;2024-02-26T02:36:26;99915.40;;;
79498;BMP180;75160;53.138;18.020;2024-02-26T02:37:28;99915.60;;;
79498;BMP180;75160;53.138;18.020;2024-02-26T02:38:30;99917.20;;;
79498;BMP180;75160;53.138;18.020;2024-02-26T02:39:33;99920.20;;;
79498;BMP180;75160;53.138;18.020;2024-02-26T02:40:35;99918.60;;;
79498;BMP180;75160;53.138;18.020;2024-02-26T02:41:36;99909.60;;;
79498;BMP180;75160;53.138;18.020;2024-02-26T02:42:38;99909.60;;;
79498;BMP180;75160;53.138;18.020;2024-02-26T02:43:40;99908.60;;;
79498;BMP180;75160;53.138;18.020;2024-02-26T02:44:41;99917.20;;;
79498;BMP180;75160;53.138;18.020;2024-02-26T02:45:43;99923.40;;;
79498;BMP180;75160;53.138;18.020;2024-02-26T02:46:45;99918.80;;;
79498;BMP180;75160;53.138;18.020;2024-02-26T02:47:47;99916.80;;;
79498;BMP180;75160;53.138;18.020;2024-02-26T02:48:49;99921.40;;;
79498;BMP180;75160;53.138;18.020;2024-02-26T02:49:51;99924.20;;;
79498;BMP180;75160;53.138;18.020;2024-02-26T02:50:53;99922.40;;;
79498;BMP180;75160;53.138;18.020;2024-02-26T02:51:54;99924.80;;;
79498;BMP180;75160;53.138;18.020;2024-02-26T02:52:56;99921.80;;;
79498;BMP180;75160;53.138;18.020;2024-02-26T02:53:58;99922.20;;;
79498;BMP180;75160;53.138;18.020;2024-02-26T02:55:00;99926.80;;;
79498;BMP180;75160;53.138;18.020;2024-02-26T02:56:02;99928.20;;;
79498;BMP180;75160;53.138;18.020;2024-02-26T02:57:04;99926.40;;;
79498;BMP180;75160;53.138;18.020;2024-02-26T02:58:06;99926.60;;;
79498;BMP180;75160;53.138;18.020;2024-02-26T02:59:08;99921.40;;;
79498;BMP180;75160;53.138;18.020;2024-02-26T03:00:11;99916.20;;;
79498;BMP180;75160;53.138;18.020;2024-02-26T03:01:13;99918.80;;;
79498;BMP180;75160;53.138;18.020;2024-02-26T03:02:15;99918.20;;;
79498;BMP180;75160;53.138;18.020;2024-02-26T03:03:17;99926.60;;;
79498;BMP180;75160;53.138;18.020;2024-02-26T03:04:18;99921.20;;;
79498;BMP180;75160;53.138;18.020;2024-02-26T03:05:20;99922.80;;;
79498;BMP180;75160;53.138;18.020;2024-02-26T03:06:22;99921.00;;;
79498;BMP180;75160;53.138;18.020;2024-02-26T03:07:24;99917.80;;;
79498;BMP180;75160;53.138;18.020;2024-02-26T03:08:26;99916.00;;;
79498;BMP180;75160;53.138;18.020;2024-02-26T03:09:28;99910.60;;;
79498;BMP180;75160;53.138;18.020;2024-02-26T03:10:29;99911.20;;;
79498;BMP180;75160;53.138;18.020;2024-02-26T03:11:31;99909.40;;;
79498;BMP180;75160;53.138;18.020;2024-02-26T03:12:34;99909.20;;;
79498;BMP180;75160;53.138;18.020;2024-02-26T03:13:36;99910.40;;;
79498;BMP180;75160;53.138;18.020;2024-02-26T03:14:37;99913.20;;;
79498;BMP180;75160;53.138;18.020;2024-02-26T03:15:40;99912.00;;;
79498;BMP180;75160;53.138;18.020;2024-02-26T03:16:41;99909.40;;;
79498;BMP180;75160;53.138;18.020;2024-02-26T03:17:43;99904.60;;;
79498;BMP180;75160;53.138;18.020;2024-02-26T03:18:45;99912.20;;;
79498;BMP180;75160;53.138;18.020;2024-02-26T03:19:47;99905.80;;;
79498;BMP180;75160;53.138;18.020;2024-02-26T03:20:49;99901.20;;;
79498;BMP180;75160;53.138;18.020;2024-02-26T03:21:51;99902.80;;;
79498;BMP180;75160;53.138;18.020;2024-02-26T03:22:53;99906.00;;;
79498;BMP180;75160;53.138;18.020;2024-02-26T03:23:55;99902.00;;;
79498;BMP180;75160;53.138;18.020;2024-02-26T03:24:57;99896.20;;;
79498;BMP180;75160;53.138;18.020;2024-02-26T03:25:59;99894.20;;;
79498;BMP180;75160;53.138;18.020;2024-02-26T03:27:00;99896.80;;;
79498;BMP180;75160;53.138;18.020;2024-02-26T03:28:02;99893.80;;;
79498;BMP180;75160;53.138;18.020;2024-02-26T03:29:05;99898.00;;;
79498;BMP180;75160;53.138;18.020;2024-02-26T03:30:08;99896.60;;;
79498;BMP180;75160;53.138;18.020;2024-02-26T03:31:10;99894.80;;;
79498;BMP180;75160;53.138;18.020;2024-02-26T03:32:12;99893.20;;;
79498;BMP180;75160;53.138;18.020;2024-02-26T03:33:14;99895.20;;;
79498;BMP180;75160;53.138;18.020;2024-02-26T03:34:16;99895.40;;;
79498;BMP180;75160;53.138;18.020;2024-02-26T03:35:19;99893.80;;;
79498;BMP180;75160;53.138;18.020;2024-02-26T03:36:20;99895.60;;;
79498;BMP180;75160;53.138;18.020;2024-02-26T03:37:23;99892.60;;;
79498;BMP180;75160;53.138;18.020;2024-02-26T03:38:25;99900.00;;;
79498;BMP180;75160;53.138;18.020;2024-02-26T03:39:26;99894.00;;;
79498;BMP180;75160;53.138;18.020;2024-02-26T03:40:28;99898.80;;;
79498;BMP180;75160;53.138;18.020;2024-02-26T03:41:30;99900.60;;;
79498;BMP180;75160;53.138;18.020;2024-02-26T03:42:33;99900.00;;;
79498;BMP180;75160;53.138;18.020;2024-02-26T03:43:35;99905.80;;;
79498;BMP180;75160;53.138;18.020;2024-02-26T03:44:37;99906.60;;;
79498;BMP180;75160;53.138;18.020;2024-02-26T03:45:38;99904.40;;;
79498;BMP180;75160;53.138;18.020;2024-02-26T03:46:41;99905.00;;;
79498;BMP180;75160;53.138;18.020;2024-02-26T03:47:44;99902.20;;;
79498;BMP180;75160;53.138;18.020;2024-02-26T03:48:46;99902.00;;;
79498;BMP180;75160;53.138;18.020;2024-02-26T03:49:47;99907.00;;;
79498;BMP180;75160;53.138;18.020;2024-02-26T03:50:50;99907.40;;;
79498;BMP180;75160;53.138;18.020;2024-02-26T03:51:51;99910.40;;;
79498;BMP180;75160;53.138;18.020;2024-02-26T03:52:53;99909.40;;;
79498;BMP180;75160;53.138;18.020;2024-02-26T03:53:55;99911.00;;;
79498;BMP180;75160;53.138;18.020;2024-02-26T03:54:57;99911.40;;;
79498;BMP180;75160;53.138;18.020;2024-02-26T03:56:04;99912.80;;;
79498;BMP180;75160;53.138;18.020;2024-02-26T03:57:06;99919.60;;;
79498;BMP180;75160;53.138;18.020;2024-02-26T03:58:07;99918.00;;;
79498;BMP180;75160;53.138;18.020;2024-02-26T03:59:10;99915.60;;;
79498;BMP180;75160;53.138;18.020;2024-02-26T04:00:13;99919.20;;;
79498;BMP180;75160;53.138;18.020;2024-02-26T04:01:15;99922.80;;;
79498;BMP180;75160;53.138;18.020;2024-02-26T04:02:17;99924.00;;;
79498;BMP180;75160;53.138;18.020;2024-02-26T04:03:21;99922.80;;;
79498;BMP180;75160;53.138;18.020;2024-02-26T04:04:22;99920.00;;;
79498;BMP180;75160;53.138;18.020;2024-02-26T04:05:24;99922.00;;;
79498;BMP180;75160;53.138;18.020;2024-02-26T04:06:26;99920.00;;;
79498;BMP180;75160;53.138;18.020;2024-02-26T04:07:28;99919.00;;;
79498;BMP180;75160;53.138;18.020;2024-02-26T04:08:29;99920.40;;;
79498;BMP180;75160;53.138;18.020;2024-02-26T04:09:32;99918.80;;;
79498;BMP180;75160;53.138;18.020;2024-02-26T04:10:34;99914.00;;;
79498;BMP180;75160;53.138;18.020;2024-02-26T04:11:42;99908.80;;;
79498;BMP180;75160;53.138;18.020;2024-02-26T04:12:46;99908.60;;;
79498;BMP180;75160;53.138;18.020;2024-02-26T04:13:48;99906.20;;;
79498;BMP180;75160;53.138;18.020;2024-02-26T04:14:54;99909.20;;;
79498;BMP180;75160;53.138;18.020;2024-02-26T04:15:55;99904.80;;;
79498;BMP180;75160;53.138;18.020;2024-02-26T04:16:57;99907.80;;;
79498;BMP180;75160;53.138;18.020;2024-02-26T04:17:59;99910.80;;;
79498;BMP180;75160;53.138;18.020;2024-02-26T04:19:01;99904.40;;;
79498;BMP180;75160;53.138;18.020;2024-02-26T04:20:05;99906.20;;;
79498;BMP180;75160;53.138;18.020;2024-02-26T04:21:07;99906.60;;;
79498;BMP180;75160;53.138;18.020;2024-02-26T04:22:10;99906.60;;;
79498;BMP180;75160;53.138;18.020;2024-02-26T04:23:12;99907.00;;;
79498;BMP180;75160;53.138;18.020;2024-02-26T04:24:14;99908.80;;;
79498;BMP180;75160;53.138;18.020;2024-02-26T04:25:16;99908.80;;;
79498;BMP180;75160;53.138;18.020;2024-02-26T04:26:18;99905.20;;;
79498;BMP180;75160;53.138;18.020;2024-02-26T04:27:19;99903.40;;;
79498;BMP180;75160;53.138;18.020;2024-02-26T04:28:21;99914.00;;;
79498;BMP180;75160;53.138;18.020;2024-02-26T04:29:23;99910.80;;;
79498;BMP180;75160;53.138;18.020;2024-02-26T04:30:24;99909.40;;;
79498;BMP180;75160;53.138;18.020;2024-02-26T04:31:26;99916.20;;;
79498;BMP180;75160;53.138;18.020;2024-02-26T04:32:29;99912.00;;;
79498;BMP180;75160;53.138;18.020;2024-02-26T04:33:34;99911.20;;;
79498;BMP180;75160;53.138;18.020;2024-02-26T04:34:36;99910.60;;;
79498;BMP180;75160;53.138;18.020;2024-02-26T04:35:38;99910.80;;;
79498;BMP180;75160;53.138;18.020;2024-02-26T04:36:40;99914.00;;;
79498;BMP180;75160;53.138;18.020;2024-02-26T04:37:42;99913.20;;;
79498;BMP180;75160;53.138;18.020;2024-02-26T04:38:44;99908.40;;;
79498;BMP180;75160;53.138;18.020;2024-02-26T04:39:46;99908.40;;;
79498;BMP180;75160;53.138;18.020;2024-02-26T04:40:48;99916.00;;;
79498;BMP180;75160;53.138;18.020;2024-02-26T04:41:50;99904.60;;;
79498;BMP180;75160;53.138;18.020;2024-02-26T04:42:51;99912.60;;;
79498;BMP180;75160;53.138;18.020;2024-02-26T04:43:53;99908.00;;;
79498;BMP180;75160;53.138;18.020;2024-02-26T04:44:55;99911.20;;;
79498;BMP180;75160;53.138;18.020;2024-02-26T04:45:57;99911.40;;;
79498;BMP180;75160;53.138;18.020;2024-02-26T04:46:59;99914.80;;;
79498;BMP180;75160;53.138;18.020;2024-02-26T04:48:00;99921.80;;;
79498;BMP180;75160;53.138;18.020;2024-02-26T04:49:02;99919.60;;;
79498;BMP180;75160;53.138;18.020;2024-02-26T04:50:05;99918.60;;;
79498;BMP180;75160;53.138;18.020;2024-02-26T04:51:07;99922.40;;;
79498;BMP180;75160;53.138;18.020;2024-02-26T04:52:09;99915.20;;;
79498;BMP180;75160;53.138;18.020;2024-02-26T04:53:11;99916.00;;;
79498;BMP180;75160;53.138;18.020;2024-02-26T04:54:12;99918.20;;;
79498;BMP180;75160;53.138;18.020;2024-02-26T04:55:14;99918.00;;;
79498;BMP180;75160;53.138;18.020;2024-02-26T04:56:16;99914.60;;;
79498;BMP180;75160;53.138;18.020;2024-02-26T04:57:18;99918.60;;;
79498;BMP180;75160;53.138;18.020;2024-02-26T04:58:20;99923.00;;;
79498;BMP180;75160;53.138;18.020;2024-02-26T04:59:21;99926.60;;;
79498;BMP180;75160;53.138;18.020;2024-02-26T05:00:23;99921.20;;;
79498;BMP180;75160;53.138;18.020;2024-02-26T05:01:25;99929.20;;;
79498;BMP180;75160;53.138;18.020;2024-02-26T05:02:27;99919.80;;;
79498;BMP180;75160;53.138;18.020;2024-02-26T05:03:29;99921.80;;;
79498;BMP180;75160;53.138;18.020;2024-02-26T05:04:30;99921.80;;;
79498;BMP180;75160;53.138;18.020;2024-02-26T05:05:32;99924.40;;;
79498;BMP180;75160;53.138;18.020;2024-02-26T05:06:36;99923.20;;;
79498;BMP180;75160;53.138;18.020;2024-02-26T05:07:42;99927.80;;;
79498;BMP180;75160;53.138;18.020;2024-02-26T05:08:45;99927.80;;;
79498;BMP180;75160;53.138;18.020;2024-02-26T05:09:47;99927.00;;;
79498;BMP180;75160;53.138;18.020;2024-02-26T05:10:51;99925.80;;;
79498;BMP180;75160;53.138;18.020;2024-02-26T05:11:53;99926.60;;;
79498;BMP180;75160;53.138;18.020;2024-02-26T05:12:54;99929.20;;;
79498;BMP180;75160;53.138;18.020;2024-02-26T05:13:57;99933.60;;;
79498;BMP180;75160;53.138;18.020;2024-02-26T05:14:58;99937.20;;;
79498;BMP180;75160;53.138;18.020;2024-02-26T05:16:00;99933.60;;;
79498;BMP180;75160;53.138;18.020;2024-02-26T05:17:02;99937.00;;;
79498;BMP180;75160;53.138;18.020;2024-02-26T05:18:04;99942.00;;;
79498;BMP180;75160;53.138;18.020;2024-02-26T05:19:06;99940.80;;;
79498;BMP180;75160;53.138;18.020;2024-02-26T05:20:08;99945.80;;;
79498;BMP180;75160;53.138;18.020;2024-02-26T05:21:10;99945.00;;;
79498;BMP180;75160;53.138;18.020;2024-02-26T05:22:12;99946.00;;;
79498;BMP180;75160;53.138;18.020;2024-02-26T05:23:14;99950.00;;;
79498;BMP180;75160;53.138;18.020;2024-02-26T05:24:16;99950.20;;;
79498;BMP180;75160;53.138;18.020;2024-02-26T05:25:18;99949.40;;;
79498;BMP180;75160;53.138;18.020;2024-02-26T05:26:22;99949.00;;;
79498;BMP180;75160;53.138;18.020;2024-02-26T05:27:24;99950.40;;;
79498;BMP180;75160;53.138;18.020;2024-02-26T05:28:26;99956.00;;;
79498;BMP180;75160;53.138;18.020;2024-02-26T05:29:27;99962.40;;;
79498;BMP180;75160;53.138;18.020;2024-02-26T05:30:29;99961.40;;;
79498;BMP180;75160;53.138;18.020;2024-02-26T05:31:31;99964.20;;;
79498;BMP180;75160;53.138;18.020;2024-02-26T05:32:33;99964.20;;;
79498;BMP180;75160;53.138;18.020;2024-02-26T05:33:34;99957.40;;;
79498;BMP180;75160;53.138;18.020;2024-02-26T05:34:37;99957.00;;;
79498;BMP180;75160;53.138;18.020;2024-02-26T05:35:40;99957.80;;;
79498;BMP180;75160;53.138;18.020;2024-02-26T05:36:42;99956.60;;;
79498;BMP180;75160;53.138;18.020;2024-02-26T05:37:43;99959.20;;;
79498;BMP180;75160;53.138;18.020;2024-02-26T05:38:45;99961.20;;;
79498;BMP180;75160;53.138;18.020;2024-02-26T05:39:48;99960.40;;;
79498;BMP180;75160;53.138;18.020;2024-02-26T05:40:49;99961.40;;;
79498;BMP180;75160;53.138;18.020;2024-02-26T05:41:53;99960.60;;;
79498;BMP180;75160;53.138;18.020;2024-02-26T05:42:55;99967.00;;;
79498;BMP180;75160;53.138;18.020;2024-02-26T05:43:58;99966.40;;;
79498;BMP180;75160;53.138;18.020;2024-02-26T05:45:00;99969.20;;;
79498;BMP180;75160;53.138;18.020;2024-02-26T05:46:07;99968.80;;;
79498;BMP180;75160;53.138;18.020;2024-02-26T05:47:10;99968.40;;;
79498;BMP180;75160;53.138;18.020;2024-02-26T05:48:11;99971.80;;;
79498;BMP180;75160;53.138;18.020;2024-02-26T05:49:13;99967.80;;;
79498;BMP180;75160;53.138;18.020;2024-02-26T05:50:15;99969.20;;;
79498;BMP180;75160;53.138;18.020;2024-02-26T05:51:18;99968.20;;;
79498;BMP180;75160;53.138;18.020;2024-02-26T05:52:20;99972.40;;;
79498;BMP180;75160;53.138;18.020;2024-02-26T05:53:22;99974.60;;;
79498;BMP180;75160;53.138;18.020;2024-02-26T05:54:23;99977.40;;;
79498;BMP180;75160;53.138;18.020;2024-02-26T05:55:25;99977.00;;;
79498;BMP180;75160;53.138;18.020;2024-02-26T05:56:27;99980.00;;;
79498;BMP180;75160;53.138;18.020;2024-02-26T05:57:29;99979.60;;;
79498;BMP180;75160;53.138;18.020;2024-02-26T05:58:30;99987.20;;;
79498;BMP180;75160;53.138;18.020;2024-02-26T05:59:32;99988.00;;;
79498;BMP180;75160;53.138;18.020;2024-02-26T06:00:34;99980.20;;;
79498;BMP180;75160;53.138;18.020;2024-02-26T06:01:36;99980.00;;;
79498;BMP180;75160;53.138;18.020;2024-02-26T06:02:38;99976.60;;;
79498;BMP180;75160;53.138;18.020;2024-02-26T06:03:40;99974.60;;;
79498;BMP180;75160;53.138;18.020;2024-02-26T06:04:41;99976.00;;;
79498;BMP180;75160;53.138;18.020;2024-02-26T06:05:43;99979.60;;;
79498;BMP180;75160;53.138;18.020;2024-02-26T06:06:45;99980.20;;;
79498;BMP180;75160;53.138;18.020;2024-02-26T06:07:47;99975.00;;;
79498;BMP180;75160;53.138;18.020;2024-02-26T06:08:49;99974.20;;;
79498;BMP180;75160;53.138;18.020;2024-02-26T06:09:51;99976.40;;;
79498;BMP180;75160;53.138;18.020;2024-02-26T06:10:53;99977.40;;;
79498;BMP180;75160;53.138;18.020;2024-02-26T06:11:55;99977.80;;;
79498;BMP180;75160;53.138;18.020;2024-02-26T06:12:57;99982.40;;;
79498;BMP180;75160;53.138;18.020;2024-02-26T06:13:58;99982.00;;;
79498;BMP180;75160;53.138;18.020;2024-02-26T06:15:01;99977.60;;;
79498;BMP180;75160;53.138;18.020;2024-02-26T06:16:03;99979.00;;;
79498;BMP180;75160;53.138;18.020;2024-02-26T06:17:05;99980.60;;;
79498;BMP180;75160;53.138;18.020;2024-02-26T06:18:06;99980.20;;;
79498;BMP180;75160;53.138;18.020;2024-02-26T06:19:08;99985.80;;;
79498;BMP180;75160;53.138;18.020;2024-02-26T06:20:11;99983.20;;;